createdAt,value
2023-05-05T00:01:38.328Z,72.55
2023-05-05T00:04:05.757Z,72.92
2023-05-05T00:06:33.078Z,73.39
2023-05-05T00:09:00.440Z,74.20
2023-05-05T00:11:27.767Z,73.18
2023-05-05T00:13:55.043Z,73.35
2023-05-05T00:16:23.380Z,73.62
2023-05-05T00:18:50.868Z,73.39
2023-05-05T00:21:18.137Z,72.90
2023-05-05T00:23:45.458Z,73.30
2023-05-05T00:26:12.892Z,74.82
2023-05-05T00:28:40.616Z,74.22
2023-05-05T00:31:08.560Z,73.73
2023-05-05T00:33:36.500Z,73.62
2023-05-05T00:36:04.606Z,74.42
2023-05-05T00:38:31.918Z,75.19
2023-05-05T00:40:59.351Z,74.60
2023-05-05T00:43:27.662Z,74.31
2023-05-05T00:46:00.229Z,74.52
2023-05-05T00:48:29.759Z,74.45
2023-05-05T00:50:57.145Z,74.07
2023-05-05T00:53:24.558Z,74.37
2023-05-05T00:55:52.160Z,74.51
2023-05-05T00:58:19.503Z,73.89
2023-05-05T01:00:46.867Z,72.76
2023-05-05T01:03:15.424Z,73.34
2023-05-05T01:06:20.028Z,73.00
2023-05-05T01:09:06.760Z,73.18
2023-05-05T01:12:14.033Z,71.93
2023-05-05T01:14:45.209Z,71.46
2023-05-05T01:17:20.207Z,72.32
2023-05-05T01:20:09.404Z,72.50
2023-05-05T01:22:40.017Z,72.93
2023-05-05T01:25:44.871Z,73.44
2023-05-05T01:28:26.784Z,74.46
2023-05-05T01:30:57.085Z,75.00
2023-05-05T01:33:26.177Z,75.17
2023-05-05T01:35:56.077Z,75.30
2023-05-05T01:38:26.790Z,75.97
2023-05-05T01:41:07.798Z,76.14
2023-05-05T01:43:35.462Z,76.44
2023-05-05T01:46:02.859Z,76.56
2023-05-05T01:48:33.478Z,76.85
2023-05-05T01:51:01.280Z,76.50
2023-05-05T01:53:29.231Z,76.82
2023-05-05T01:55:56.494Z,77.10
2023-05-05T01:58:24.578Z,77.37
2023-05-05T02:00:52.109Z,76.31
2023-05-05T02:03:19.693Z,76.10
2023-05-05T02:05:47.254Z,76.38
2023-05-05T02:08:14.655Z,77.47
2023-05-05T02:10:42.852Z,78.57
2023-05-05T02:13:10.859Z,79.59
2023-05-05T02:15:38.665Z,78.60
2023-05-05T02:18:06.610Z,78.63
2023-05-05T02:20:34.671Z,78.37
2023-05-05T02:23:02.130Z,78.11
2023-05-05T02:25:38.841Z,77.55
2023-05-05T02:28:08.653Z,77.34
2023-05-05T02:30:35.883Z,77.69
2023-05-05T02:33:07.306Z,78.12
2023-05-05T02:35:41.324Z,78.09
2023-05-05T02:38:17.340Z,77.81
2023-05-05T02:40:47.255Z,77.78
2023-05-05T02:43:18.190Z,77.70
2023-05-05T02:45:46.326Z,77.90
2023-05-05T02:48:14.799Z,78.11
2023-05-05T02:50:42.031Z,78.00
2023-05-05T02:53:32.040Z,78.07
2023-05-05T02:56:21.010Z,78.66
2023-05-05T02:59:16.002Z,78.18
2023-05-05T03:01:54.895Z,78.58
2023-05-05T03:04:38.406Z,78.49
2023-05-05T03:07:26.475Z,78.47
2023-05-05T03:10:09.796Z,78.58
2023-05-05T03:13:00.678Z,78.84
2023-05-05T03:15:44.916Z,79.21
2023-05-05T03:18:13.221Z,79.00
2023-05-05T03:20:44.010Z,78.87
2023-05-05T03:23:13.976Z,78.69
2023-05-05T03:25:47.032Z,78.64
2023-05-05T03:28:23.603Z,79.96
2023-05-05T03:30:50.953Z,78.80
2023-05-05T03:33:19.582Z,78.57
2023-05-05T03:35:47.196Z,78.99
2023-05-05T03:38:15.025Z,78.11
2023-05-05T03:40:44.758Z,78.56
2023-05-05T03:43:15.613Z,79.24
2023-05-05T03:45:43.174Z,78.55
2023-05-05T03:48:11.220Z,79.08
2023-05-05T03:50:40.751Z,78.98
2023-05-05T03:53:08.566Z,78.60
2023-05-05T03:55:36.077Z,77.85
2023-05-05T03:58:03.500Z,77.63
2023-05-05T04:00:31.055Z,78.05
2023-05-05T04:02:59.004Z,78.13
2023-05-05T04:05:26.662Z,77.64
2023-05-05T04:07:54.580Z,76.97
2023-05-05T04:10:22.046Z,77.17
2023-05-05T04:12:49.311Z,76.65
2023-05-05T04:15:17.154Z,76.59
2023-05-05T04:17:44.972Z,76.13
2023-05-05T04:20:12.594Z,75.92
2023-05-05T04:22:40.760Z,74.21
2023-05-05T04:25:08.243Z,74.00
2023-05-05T04:27:35.729Z,73.74
2023-05-05T04:30:03.391Z,73.02
2023-05-05T04:32:32.793Z,72.66
2023-05-05T04:35:00.911Z,73.02
2023-05-05T04:37:28.427Z,72.01
2023-05-05T04:39:57.222Z,71.80
2023-05-05T04:42:24.860Z,71.77
2023-05-05T04:44:52.295Z,72.01
2023-05-05T04:47:20.623Z,70.43
2023-05-05T04:49:48.152Z,70.06
2023-05-05T04:52:15.501Z,69.81
2023-05-05T04:54:42.811Z,69.22
2023-05-05T04:57:10.186Z,68.44
2023-05-05T04:59:37.538Z,68.33
2023-05-05T05:02:05.027Z,67.60
2023-05-05T05:04:32.391Z,67.57
2023-05-05T05:06:59.847Z,66.62
2023-05-05T05:09:27.627Z,66.31
2023-05-05T05:11:58.756Z,65.96
2023-05-05T05:14:27.364Z,65.58
2023-05-05T05:16:54.803Z,65.25
2023-05-05T05:19:23.793Z,65.27
2023-05-05T05:21:51.209Z,65.17
2023-05-05T05:24:18.591Z,65.05
2023-05-05T05:26:45.889Z,63.89
2023-05-05T05:29:13.534Z,63.31
2023-05-05T05:31:40.828Z,63.01
2023-05-05T05:34:09.003Z,63.34
2023-05-05T05:36:37.327Z,63.11
2023-05-05T05:39:05.109Z,62.43
2023-05-05T05:41:32.846Z,62.04
2023-05-05T05:44:00.487Z,61.50
2023-05-05T05:46:28.512Z,62.58
2023-05-05T05:48:56.573Z,62.33
2023-05-05T05:51:24.566Z,61.32
2023-05-05T05:53:51.963Z,60.80
2023-05-05T05:56:19.934Z,57.89
2023-05-05T05:58:48.738Z,57.71
2023-05-05T06:01:16.449Z,57.45
2023-05-05T06:03:44.757Z,57.09
2023-05-05T06:06:12.249Z,56.78
2023-05-05T06:08:39.755Z,56.45
2023-05-05T06:11:07.215Z,54.83
2023-05-05T06:13:34.896Z,56.46
2023-05-05T06:16:02.754Z,56.19
2023-05-05T06:18:30.076Z,56.62
2023-05-05T06:20:57.450Z,56.28
2023-05-05T06:23:27.907Z,55.42
2023-05-05T06:25:59.978Z,55.68
2023-05-05T06:28:27.365Z,55.43
2023-05-05T06:30:54.784Z,55.57
2023-05-05T06:33:22.166Z,55.58
2023-05-05T06:35:51.400Z,54.07
2023-05-05T06:38:18.892Z,54.30
2023-05-05T06:40:52.210Z,54.32
2023-05-05T06:43:19.812Z,53.43
2023-05-05T06:45:53.913Z,52.70
2023-05-05T06:48:21.280Z,52.04
2023-05-05T06:50:48.865Z,51.41
2023-05-05T06:53:16.354Z,49.19
2023-05-05T06:55:48.247Z,51.28
2023-05-05T06:58:15.947Z,49.00
2023-05-05T07:00:43.599Z,50.95
2023-05-05T07:03:11.125Z,50.30
2023-05-05T07:05:38.454Z,50.03
2023-05-05T07:08:06.665Z,49.95
2023-05-05T07:10:33.999Z,49.67
2023-05-05T07:13:01.460Z,49.55
2023-05-05T07:15:29.827Z,50.28
2023-05-05T07:17:57.768Z,50.33
2023-05-05T07:20:25.440Z,50.28
2023-05-05T07:22:52.905Z,50.48
2023-05-05T07:25:20.386Z,50.15
2023-05-05T07:27:47.830Z,50.10
2023-05-05T07:30:18.393Z,50.07
2023-05-05T07:32:46.760Z,49.61
2023-05-05T07:35:14.203Z,51.03
2023-05-05T07:37:41.583Z,50.69
2023-05-05T07:40:09.646Z,50.13
2023-05-05T07:42:40.257Z,50.56
2023-05-05T07:45:11.153Z,49.99
2023-05-05T07:47:38.884Z,50.21
2023-05-05T07:50:07.363Z,50.05
2023-05-05T07:52:46.644Z,49.50
2023-05-05T07:55:17.245Z,50.45
2023-05-05T07:57:45.257Z,50.05
2023-05-05T08:00:13.548Z,49.06
2023-05-05T08:02:41.576Z,49.37
2023-05-05T08:05:09.677Z,48.08
2023-05-05T08:07:41.520Z,47.71
2023-05-05T08:10:10.416Z,48.62
2023-05-05T08:12:38.151Z,48.68
2023-05-05T08:15:06.696Z,48.27
2023-05-05T08:17:48.110Z,46.91
2023-05-05T08:20:19.379Z,46.70
2023-05-05T08:22:46.843Z,45.23
2023-05-05T08:25:14.358Z,45.15
2023-05-05T08:27:42.313Z,45.16
2023-05-05T08:30:10.081Z,44.65
2023-05-05T08:32:38.552Z,45.29
2023-05-05T08:35:06.848Z,44.72
2023-05-05T08:37:34.799Z,45.54
2023-05-05T08:40:22.874Z,44.48
2023-05-05T08:42:50.209Z,43.58
2023-05-05T08:45:17.588Z,39.80
2023-05-05T08:48:10.285Z,40.85
2023-05-05T08:50:37.724Z,41.29
2023-05-05T08:53:11.620Z,40.46
2023-05-05T08:55:46.590Z,38.52
2023-05-05T08:58:14.033Z,40.11
2023-05-05T09:00:42.977Z,40.81
2023-05-05T09:03:10.807Z,40.26
2023-05-05T09:05:38.247Z,40.69
2023-05-05T09:08:06.869Z,40.81
2023-05-05T09:10:34.656Z,40.23
2023-05-05T09:13:04.043Z,40.20
2023-05-05T09:15:32.244Z,40.42
2023-05-05T09:18:00.709Z,39.57
2023-05-05T09:20:35.747Z,39.30
2023-05-05T09:23:19.753Z,39.85
2023-05-05T09:26:05.002Z,39.85
2023-05-05T09:28:32.564Z,39.70
2023-05-05T09:31:13.768Z,39.60
2023-05-05T09:33:41.438Z,39.70
2023-05-05T09:36:08.916Z,39.88
2023-05-05T09:38:36.910Z,40.16
2023-05-05T09:41:05.453Z,39.96
2023-05-05T09:43:52.577Z,39.52
2023-05-05T09:46:20.135Z,39.54
2023-05-05T09:48:47.755Z,39.38
2023-05-05T09:51:15.281Z,39.54
2023-05-05T09:53:42.747Z,38.74
2023-05-05T09:56:10.559Z,38.86
2023-05-05T09:58:38.025Z,38.53
2023-05-05T10:01:05.909Z,38.75
2023-05-05T10:03:33.320Z,38.59
2023-05-05T10:06:04.707Z,39.05
2023-05-05T10:08:33.739Z,39.51
2023-05-05T10:11:06.498Z,39.02
2023-05-05T10:13:36.465Z,39.37
2023-05-05T10:16:04.423Z,38.36
2023-05-05T10:18:32.340Z,38.33
2023-05-05T10:21:04.460Z,37.69
2023-05-05T10:24:04.400Z,37.48
2023-05-05T10:26:31.741Z,36.83
2023-05-05T10:29:01.444Z,37.85
2023-05-05T10:31:49.020Z,37.46
2023-05-05T10:34:21.936Z,37.88
2023-05-05T10:36:49.756Z,38.19
2023-05-05T10:39:17.230Z,37.74
2023-05-05T10:41:44.601Z,37.42
2023-05-05T10:44:12.067Z,37.03
2023-05-05T10:46:39.508Z,37.61
2023-05-05T10:49:30.528Z,37.24
2023-05-05T10:52:13.545Z,36.85
2023-05-05T10:55:01.392Z,36.75
2023-05-05T10:57:29.053Z,36.71
2023-05-05T10:59:56.406Z,36.87
2023-05-05T11:02:28.084Z,36.49
2023-05-05T11:05:24.834Z,35.87
2023-05-05T11:07:52.216Z,36.34
2023-05-05T11:10:23.788Z,36.19
2023-05-05T11:12:54.480Z,35.65
2023-05-05T11:15:27.711Z,35.98
2023-05-05T11:17:55.914Z,36.31
2023-05-05T11:20:43.494Z,35.57
2023-05-05T11:23:10.845Z,35.55
2023-05-05T11:25:41.425Z,35.48
2023-05-05T11:28:23.238Z,36.27
2023-05-05T11:30:57.835Z,35.28
2023-05-05T11:33:31.952Z,34.72
2023-05-05T11:36:08.448Z,34.71
2023-05-05T11:38:38.672Z,34.19
2023-05-05T11:41:10.392Z,34.98
2023-05-05T11:43:37.752Z,35.17
2023-05-05T11:46:12.449Z,35.08
2023-05-05T11:48:49.104Z,34.71
2023-05-05T11:51:17.079Z,34.18
2023-05-05T11:53:45.153Z,34.08
2023-05-05T11:56:14.220Z,33.61
2023-05-05T11:58:41.972Z,33.84
2023-05-05T12:01:09.357Z,33.21
2023-05-05T12:03:39.831Z,33.06
2023-05-05T12:06:07.837Z,33.19
2023-05-05T12:08:38.826Z,32.60
2023-05-05T12:11:07.877Z,32.55
2023-05-05T12:13:35.221Z,33.30
2023-05-05T12:16:12.935Z,33.06
2023-05-05T12:18:40.648Z,33.16
2023-05-05T12:21:15.396Z,33.86
2023-05-05T12:23:43.014Z,34.02
2023-05-05T12:26:32.163Z,34.58
2023-05-05T12:28:59.840Z,34.64
2023-05-05T12:31:40.448Z,34.30
2023-05-05T12:34:09.063Z,33.63
2023-05-05T12:36:36.625Z,33.52
2023-05-05T12:39:06.938Z,32.92
2023-05-05T12:41:34.463Z,32.59
2023-05-05T12:44:03.057Z,32.22
2023-05-05T12:46:31.804Z,32.61
2023-05-05T12:49:05.134Z,33.29
2023-05-05T12:51:36.065Z,34.13
2023-05-05T12:54:07.531Z,33.87
2023-05-05T12:56:39.837Z,33.58
2023-05-05T12:59:08.412Z,32.42
2023-05-05T13:01:36.557Z,32.76
2023-05-05T13:04:07.741Z,33.34
2023-05-05T13:06:35.954Z,33.14
2023-05-05T13:09:04.478Z,32.54
2023-05-05T13:11:35.778Z,32.56
2023-05-05T13:14:03.822Z,32.30
2023-05-05T13:16:33.973Z,32.16
2023-05-05T13:19:01.319Z,32.29
2023-05-05T13:21:28.576Z,32.23
2023-05-05T13:24:01.538Z,31.48
2023-05-05T13:26:39.654Z,33.21
2023-05-05T13:29:06.929Z,32.30
2023-05-05T13:31:34.260Z,32.45
2023-05-05T13:34:01.569Z,31.70
2023-05-05T13:36:28.881Z,31.71
2023-05-05T13:38:56.160Z,31.41
2023-05-05T13:41:23.403Z,32.32
2023-05-05T13:43:51.323Z,32.34
2023-05-05T13:46:20.308Z,33.04
2023-05-05T13:48:47.914Z,31.56
2023-05-05T13:51:16.425Z,32.70
2023-05-05T13:53:46.903Z,32.50
2023-05-05T13:56:14.597Z,32.97
2023-05-05T13:58:42.508Z,33.21
2023-05-05T14:01:10.436Z,32.13
2023-05-05T14:03:39.599Z,32.61
2023-05-05T14:06:09.100Z,33.96
2023-05-05T14:08:36.543Z,33.48
2023-05-05T14:11:03.909Z,33.84
2023-05-05T14:13:31.290Z,31.74
2023-05-05T14:15:58.557Z,31.64
2023-05-05T14:18:26.001Z,29.73
2023-05-05T14:20:53.329Z,29.63
2023-05-05T14:23:20.657Z,28.84
2023-05-05T14:25:47.991Z,30.94
2023-05-05T14:28:15.374Z,30.71
2023-05-05T14:30:42.719Z,31.76
2023-05-05T14:33:10.289Z,31.59
2023-05-05T14:35:37.589Z,29.41
2023-05-05T14:38:04.937Z,28.98
2023-05-05T14:40:32.296Z,28.67
2023-05-05T14:43:00.211Z,27.94
2023-05-05T14:45:29.596Z,28.25
2023-05-05T14:47:56.913Z,27.37
2023-05-05T14:50:24.245Z,26.62
2023-05-05T14:52:51.511Z,25.53
2023-05-05T14:55:18.919Z,26.11
2023-05-05T14:57:46.222Z,26.24
2023-05-05T15:00:14.021Z,28.08
2023-05-05T15:02:41.373Z,27.32
2023-05-05T15:05:09.094Z,28.52
2023-05-05T15:07:36.594Z,28.96
2023-05-05T15:10:04.972Z,28.00
2023-05-05T15:12:32.397Z,28.40
2023-05-05T15:14:59.722Z,28.67
2023-05-05T15:17:27.054Z,29.14
2023-05-05T15:19:54.467Z,29.57
2023-05-05T15:22:21.770Z,30.29
2023-05-05T15:24:49.150Z,31.02
2023-05-05T15:27:18.102Z,29.90
2023-05-05T15:29:45.454Z,31.12
2023-05-05T15:32:12.889Z,32.80
2023-05-05T15:34:40.220Z,34.50
2023-05-05T15:37:07.514Z,35.40
2023-05-05T15:39:34.749Z,36.10
2023-05-05T15:42:04.960Z,35.82
2023-05-05T15:44:32.320Z,36.20
2023-05-05T15:46:59.677Z,34.56
2023-05-05T15:49:26.946Z,33.61
2023-05-05T15:51:54.249Z,34.44
2023-05-05T15:54:21.659Z,34.23
2023-05-05T15:56:48.917Z,34.52
2023-05-05T15:59:31.779Z,34.37
2023-05-05T16:02:03.540Z,32.40
2023-05-05T16:04:33.770Z,31.27
2023-05-05T16:07:11.384Z,33.84
2023-05-05T16:09:38.855Z,35.48
2023-05-05T16:12:06.150Z,36.84
2023-05-05T16:14:33.435Z,35.56
2023-05-05T16:17:04.058Z,37.07
2023-05-05T16:19:31.436Z,37.49
2023-05-05T16:21:58.753Z,38.29
2023-05-05T16:24:26.125Z,39.34
2023-05-05T16:26:53.407Z,39.90
2023-05-05T16:29:20.748Z,40.21
2023-05-05T16:31:48.067Z,40.54
2023-05-05T16:34:16.458Z,40.88
2023-05-05T16:36:44.477Z,41.27
2023-05-05T16:39:14.404Z,41.41
2023-05-05T16:41:42.212Z,41.87
2023-05-05T16:44:09.615Z,42.10
2023-05-05T16:46:37.457Z,42.01
2023-05-05T16:49:05.016Z,42.39
2023-05-05T16:51:32.330Z,42.50
2023-05-05T16:53:59.606Z,42.28
2023-05-05T16:56:26.944Z,44.01
2023-05-05T16:58:54.221Z,45.63
2023-05-05T17:01:21.586Z,46.34
2023-05-05T17:03:48.884Z,46.54
2023-05-05T17:06:16.221Z,47.30
2023-05-05T17:08:43.575Z,47.80
2023-05-05T17:11:11.842Z,48.10
2023-05-05T17:13:39.296Z,48.69
2023-05-05T17:16:07.031Z,49.50
2023-05-05T17:18:34.385Z,50.20
2023-05-05T17:21:01.715Z,50.81
2023-05-05T17:23:29.006Z,50.97
2023-05-05T17:25:58.765Z,51.49
2023-05-05T17:28:26.464Z,52.01
2023-05-05T17:30:53.859Z,52.05
2023-05-05T17:33:22.129Z,52.15
2023-05-05T17:35:49.443Z,52.40
2023-05-05T17:38:17.566Z,52.20
2023-05-05T17:40:45.164Z,52.46
2023-05-05T17:43:12.474Z,52.54
2023-05-05T17:45:39.753Z,53.11
2023-05-05T17:48:08.078Z,53.62
2023-05-05T17:50:35.380Z,53.50
2023-05-05T17:53:02.707Z,53.77
2023-05-05T17:55:30.306Z,54.36
2023-05-05T17:57:59.043Z,54.36
2023-05-05T18:00:26.424Z,54.81
2023-05-05T18:02:53.790Z,55.19
2023-05-05T18:05:21.289Z,55.34
2023-05-05T18:07:48.542Z,55.75
2023-05-05T18:10:16.715Z,56.20
2023-05-05T18:12:44.092Z,56.45
2023-05-05T18:15:12.024Z,57.12
2023-05-05T18:17:39.513Z,57.07
2023-05-05T18:20:07.466Z,57.21
2023-05-05T18:22:34.768Z,57.40
2023-05-05T18:25:02.063Z,57.42
2023-05-05T18:27:32.407Z,57.26
2023-05-05T18:30:00.232Z,57.32
2023-05-05T18:32:28.949Z,57.53
2023-05-05T18:34:56.281Z,57.41
2023-05-05T18:37:23.550Z,57.06
2023-05-05T18:39:50.795Z,57.88
2023-05-05T18:42:18.081Z,57.72
2023-05-05T18:44:45.704Z,57.47
2023-05-05T18:47:13.037Z,57.93
2023-05-05T18:49:40.289Z,57.85
2023-05-05T18:52:07.583Z,58.35
2023-05-05T18:54:36.314Z,59.12
2023-05-05T18:57:06.650Z,59.75
2023-05-05T18:59:34.056Z,60.26
2023-05-05T19:02:02.392Z,60.55
2023-05-05T19:04:31.584Z,60.24
2023-05-05T19:06:59.717Z,60.60
2023-05-05T19:09:27.478Z,60.61
2023-05-05T19:11:54.836Z,60.74
2023-05-05T19:14:22.819Z,61.00
2023-05-05T19:16:50.167Z,61.45
2023-05-05T19:19:17.524Z,62.12
2023-05-05T19:21:44.782Z,62.30
2023-05-05T19:24:12.052Z,62.88
2023-05-05T19:26:39.330Z,63.06
2023-05-05T19:29:06.567Z,63.09
2023-05-05T19:31:33.879Z,63.80
2023-05-05T19:34:02.832Z,63.31
2023-05-05T19:36:33.067Z,64.40
2023-05-05T19:39:01.714Z,64.81
2023-05-05T19:41:30.580Z,65.49
2023-05-05T19:43:57.936Z,65.28
2023-05-05T19:46:28.229Z,65.26
2023-05-05T19:48:55.818Z,64.83
2023-05-05T19:51:23.191Z,64.38
2023-05-05T19:53:50.760Z,63.90
2023-05-05T19:56:18.115Z,64.43
2023-05-05T19:58:59.243Z,65.22
2023-05-05T20:01:27.212Z,65.22
2023-05-05T20:03:55.848Z,65.41
2023-05-05T20:06:23.313Z,65.84
2023-05-05T20:08:50.890Z,65.79
2023-05-05T20:11:18.284Z,65.43
2023-05-05T20:13:45.574Z,65.26
2023-05-05T20:16:12.986Z,65.13
2023-05-05T20:18:40.401Z,65.44
2023-05-05T20:21:07.702Z,65.97
2023-05-05T20:23:35.085Z,65.50
2023-05-05T20:26:02.617Z,66.43
2023-05-05T20:28:31.622Z,66.48
2023-05-05T20:31:00.617Z,66.06
2023-05-05T20:33:28.462Z,66.05
2023-05-05T20:35:55.875Z,66.56
2023-05-05T20:38:23.209Z,66.73
2023-05-05T20:40:50.822Z,67.09
2023-05-05T20:43:18.834Z,66.96
2023-05-05T20:45:46.677Z,67.41
2023-05-05T20:48:14.030Z,67.78
2023-05-05T20:50:41.529Z,67.58
2023-05-05T20:53:09.189Z,67.90
2023-05-05T20:55:36.527Z,68.03
2023-05-05T20:58:04.653Z,67.71
2023-05-05T21:00:32.010Z,68.02
2023-05-05T21:02:59.399Z,67.69
2023-05-05T21:05:26.826Z,67.43
2023-05-05T21:07:54.237Z,67.68
2023-05-05T21:10:21.623Z,68.03
2023-05-05T21:12:48.972Z,68.40
2023-05-05T21:15:16.726Z,68.84
2023-05-05T21:17:44.247Z,69.04
2023-05-05T21:20:12.243Z,69.05
2023-05-05T21:22:39.780Z,69.02
2023-05-05T21:25:20.508Z,69.01
2023-05-05T21:27:48.316Z,69.50
2023-05-05T21:30:16.188Z,69.96
2023-05-05T21:32:44.068Z,70.34
2023-05-05T21:35:11.468Z,69.97
2023-05-05T21:37:39.197Z,70.30
2023-05-05T21:40:10.823Z,70.66
2023-05-05T21:42:38.523Z,70.72
2023-05-05T21:45:06.248Z,70.59
2023-05-05T21:47:33.806Z,70.65
2023-05-05T21:50:01.163Z,70.56
2023-05-05T21:52:28.482Z,70.60
2023-05-05T21:54:56.014Z,71.03
2023-05-05T21:57:23.368Z,70.83
2023-05-05T21:59:50.931Z,70.65
2023-05-05T22:02:18.217Z,70.24
2023-05-05T22:04:48.710Z,70.74
2023-05-05T22:07:16.473Z,71.17
2023-05-05T22:09:44.032Z,71.42
2023-05-05T22:12:11.306Z,71.93
2023-05-05T22:14:38.600Z,71.47
2023-05-05T22:17:05.942Z,71.54
2023-05-05T22:19:33.211Z,71.44
2023-05-05T22:22:00.522Z,70.62
2023-05-05T22:24:27.781Z,70.75
2023-05-05T22:26:57.273Z,71.28
2023-05-05T22:29:25.243Z,71.45
2023-05-05T22:31:52.796Z,72.11
2023-05-05T22:34:21.807Z,72.01
2023-05-05T22:36:49.336Z,72.30
2023-05-05T22:39:18.546Z,74.04
2023-05-05T22:41:46.508Z,74.45
2023-05-05T22:44:13.891Z,74.04
2023-05-05T22:46:41.284Z,74.41
2023-05-05T22:49:08.814Z,74.49
2023-05-05T22:51:37.928Z,74.63
2023-05-05T22:54:05.330Z,74.07
2023-05-05T22:56:32.789Z,73.74
2023-05-05T22:59:00.061Z,74.07
2023-05-05T23:01:27.432Z,74.42
2023-05-05T23:03:54.765Z,75.11
2023-05-05T23:06:22.024Z,75.11
2023-05-05T23:08:49.350Z,74.52
2023-05-05T23:11:16.648Z,75.65
2023-05-05T23:13:43.972Z,76.47
2023-05-05T23:16:11.304Z,76.97
2023-05-05T23:18:38.886Z,76.99
2023-05-05T23:21:06.296Z,76.90
2023-05-05T23:23:33.609Z,77.48
2023-05-05T23:26:00.925Z,77.15
2023-05-05T23:28:28.172Z,77.73
2023-05-05T23:30:55.625Z,77.26
2023-05-05T23:33:22.975Z,76.63
2023-05-05T23:35:50.241Z,76.34
2023-05-05T23:38:17.457Z,75.94
2023-05-05T23:40:44.732Z,76.42
2023-05-05T23:43:14.825Z,76.30
2023-05-05T23:45:42.147Z,76.31
2023-05-05T23:48:09.517Z,76.32
2023-05-05T23:50:36.907Z,77.09
2023-05-05T23:53:04.135Z,77.32
2023-05-05T23:55:31.404Z,77.89
2023-05-05T23:57:58.689Z,78.28
